Time;durP1;ratioP1;P1;durP2;ratioP2;P2;SDS_P1;SDS_P2;PMS_P1;PMS_P2;Temp;Humidity;BMP_temperature;BMP_pressure;BME280_temperature;BME280_humidity;BME280_pressure;Samples;Min_cycle;Max_cycle;Signal;HPM_P1;HPM_P2
2023/04/07 00:01:17;;;;;;;;;;;;;;;17.05;68.00;100633.44;7393459;19;1861;-80
2023/04/07 00:03:48;;;;;;;;;;;;;;;16.95;68.10;100634.28;7398467;19;991;-80
2023/04/07 00:06:16;;;;;;;;;;;;;;;16.99;67.81;100628.59;7399074;19;1880;-80
2023/04/07 00:08:45;;;;;;;;;;;;;;;16.91;67.73;100631.06;7398645;19;1425;-80
2023/04/07 00:11:13;;;;;;;;;;;;;;;16.89;67.91;100632.97;7397515;19;1390;-80
2023/04/07 00:13:41;;;;;;;;;;;;;;;16.89;67.93;100640.97;7397692;19;1379;-78
2023/04/07 00:16:10;;;;;;;;;;;;;;;16.95;67.86;100644.97;7398084;19;1468;-79
2023/04/07 00:18:38;;;;;;;;;;;;;;;16.87;67.79;100641.13;7397420;19;1421;-79
2023/04/07 00:21:09;;;;;;;;;;;;;;;16.84;68.29;100640.53;7397117;19;1866;-79
2023/04/07 00:23:37;;;;;;;;;;;;;;;16.83;67.86;100645.03;7398562;19;1441;-79
2023/04/07 00:26:06;;;;;;;;;;;;;;;16.82;67.79;100635.31;7396377;19;1690;-79
2023/04/07 00:28:34;;;;;;;;;;;;;;;16.84;67.65;100638.69;7395131;19;1576;-79
2023/04/07 00:31:02;;;;;;;;;;;;;;;16.90;67.78;100635.53;7397218;19;1032;-79
2023/04/07 00:33:30;;;;;;;;;;;;;;;16.83;67.84;100644.16;7396490;19;1848;-78
2023/04/07 00:35:59;;;;;;;;;;;;;;;16.87;67.74;100629.56;7398788;19;1748;-79
2023/04/07 00:38:30;;;;;;;;;;;;;;;16.87;67.78;100632.25;7398603;19;1516;-79
2023/04/07 00:40:59;;;;;;;;;;;;;;;16.83;67.74;100652.16;7396791;19;1845;-80
2023/04/07 00:43:27;;;;;;;;;;;;;;;16.81;67.73;100644.31;7395145;19;1826;-80
2023/04/07 00:45:56;;;;;;;;;;;;;;;16.85;68.11;100653.75;7395562;19;1416;-79
2023/04/07 00:48:24;;;;;;;;;;;;;;;16.86;68.09;100643.91;7404022;19;1401;-79
2023/04/07 00:50:52;;;;;;;;;;;;;;;16.77;68.07;100639.28;7404584;19;1369;-79
2023/04/07 00:53:21;;;;;;;;;;;;;;;16.80;68.11;100633.72;7405491;19;1201;-79
2023/04/07 00:55:52;;;;;;;;;;;;;;;16.88;67.51;100637.47;7404233;19;1875;-80
2023/04/07 00:58:20;;;;;;;;;;;;;;;16.85;67.67;100631.53;7403872;19;1426;-80
2023/04/07 01:00:51;;;;;;;;;;;;;;;16.89;67.35;100635.63;7403967;19;1851;-81
2023/04/07 01:03:21;;;;;;;;;;;;;;;16.87;67.81;100645.59;7402436;19;1700;-79
2023/04/07 01:05:54;;;;;;;;;;;;;;;16.82;67.45;100640.66;7403862;19;1446;-81
2023/04/07 01:08:25;;;;;;;;;;;;;;;16.85;67.82;100628.84;7400611;19;1686;-79
2023/04/07 01:11:02;;;;;;;;;;;;;;;16.79;67.70;100623.97;7402962;19;1749;-80
2023/04/07 01:13:33;;;;;;;;;;;;;;;16.82;68.25;100632.63;7401477;19;1300;-79
2023/04/07 01:16:02;;;;;;;;;;;;;;;16.79;67.72;100632.00;7403789;19;1903;-80
2023/04/07 01:18:33;;;;;;;;;;;;;;;16.79;68.13;100669.38;7401465;19;1827;-80
2023/04/07 01:21:04;;;;;;;;;;;;;;;16.69;68.22;100622.06;7404247;19;1856;-78
2023/04/07 01:23:50;;;;;;;;;;;;;;;16.68;68.12;100623.03;7405537;19;1714;-79
2023/04/07 01:26:23;;;;;;;;;;;;;;;16.67;67.89;100617.81;7404872;19;1359;-80
2023/04/07 01:29:06;;;;;;;;;;;;;;;16.69;68.15;100635.44;7403355;19;1390;-79
2023/04/07 01:31:38;;;;;;;;;;;;;;;16.64;68.05;100640.28;7403946;19;1416;-80
2023/04/07 01:34:08;;;;;;;;;;;;;;;16.67;67.79;100629.38;7405139;19;1055;-80
2023/04/07 01:36:36;;;;;;;;;;;;;;;16.64;67.80;100640.28;7404510;19;1001;-80
2023/04/07 01:39:05;;;;;;;;;;;;;;;16.65;67.41;100658.00;7404389;19;1587;-80
2023/04/07 01:41:34;;;;;;;;;;;;;;;16.69;68.03;100627.41;7400586;19;1842;-80
2023/04/07 01:44:02;;;;;;;;;;;;;;;16.89;67.35;100633.84;7397710;19;1484;-80
2023/04/07 01:46:31;;;;;;;;;;;;;;;17.58;65.98;100613.03;7404171;19;1954;-80
2023/04/07 01:49:02;;;;;;;;;;;;;;;18.44;63.50;100611.00;7403608;19;1852;-80
2023/04/07 01:51:31;;;;;;;;;;;;;;;19.20;61.37;100611.31;7403329;19;1833;-81
2023/04/07 01:54:00;;;;;;;;;;;;;;;19.48;60.71;100588.16;7403229;19;1781;-80
2023/04/07 01:56:29;;;;;;;;;;;;;;;19.65;59.95;100607.19;7403236;19;1808;-80
2023/04/07 01:58:57;;;;;;;;;;;;;;;19.83;59.69;100610.00;7403438;19;1764;-80
2023/04/07 02:01:25;;;;;;;;;;;;;;;19.88;59.85;100606.91;7400017;19;1849;-80
2023/04/07 02:03:55;;;;;;;;;;;;;;;19.91;59.56;100607.44;7400487;19;1399;-80
2023/04/07 02:06:30;;;;;;;;;;;;;;;19.98;59.77;100618.47;7404220;19;1926;-81
2023/04/07 02:09:01;;;;;;;;;;;;;;;19.94;59.59;100606.34;7402950;19;1832;-81
2023/04/07 02:11:31;;;;;;;;;;;;;;;20.02;59.85;100609.13;7401774;19;1927;-81
2023/04/07 02:13:59;;;;;;;;;;;;;;;19.91;59.93;100607.44;7398707;19;1406;-78
2023/04/07 02:16:28;;;;;;;;;;;;;;;20.02;59.60;100606.44;7402891;19;1807;-80
2023/04/07 02:18:57;;;;;;;;;;;;;;;20.05;59.75;100607.00;7402517;19;1823;-80
2023/04/07 02:21:29;;;;;;;;;;;;;;;20.03;59.93;100608.13;7399928;19;1863;-81
2023/04/07 02:23:57;;;;;;;;;;;;;;;20.14;59.54;100607.97;7403460;19;1650;-82
2023/04/07 02:26:26;;;;;;;;;;;;;;;20.10;59.58;100611.94;7402062;19;1744;-82
2023/04/07 02:28:54;;;;;;;;;;;;;;;20.17;59.38;100607.66;7401190;19;1852;-81
2023/04/07 02:31:22;;;;;;;;;;;;;;;20.14;59.53;100613.31;7400378;19;1744;-77
2023/04/07 02:33:50;;;;;;;;;;;;;;;20.11;59.72;100608.22;7399061;19;1793;-81
2023/04/07 02:36:19;;;;;;;;;;;;;;;20.01;59.90;100612.78;7402044;19;1008;-66
2023/04/07 02:38:50;;;;;;;;;;;;;;;20.10;59.83;100611.09;7401377;19;1840;-66
2023/04/07 02:41:18;;;;;;;;;;;;;;;20.16;59.53;100626.59;7400519;19;1880;-66
2023/04/07 02:43:46;;;;;;;;;;;;;;;20.12;59.58;100604.56;7399600;19;1887;-66
2023/04/07 02:46:14;;;;;;;;;;;;;;;20.22;59.40;100626.84;7401546;19;1808;-66
2023/04/07 02:48:44;;;;;;;;;;;;;;;20.16;59.60;100626.59;7399268;19;1832;-81
2023/04/07 02:51:12;;;;;;;;;;;;;;;20.05;60.02;100609.69;7401231;19;1491;-81
2023/04/07 02:53:40;;;;;;;;;;;;;;;20.15;59.79;100623.06;7397703;19;1554;-81
2023/04/07 02:56:11;;;;;;;;;;;;;;;20.19;59.54;100624.47;7398794;19;1352;-66
2023/04/07 02:58:39;;;;;;;;;;;;;;;20.22;59.37;100637.59;7398645;19;1397;-66
2023/04/07 03:01:08;;;;;;;;;;;;;;;20.22;59.54;100632.22;7400230;19;1851;-66
2023/04/07 03:03:36;;;;;;;;;;;;;;;20.20;59.27;100636.91;7398955;19;1426;-66
2023/04/07 03:06:04;;;;;;;;;;;;;;;20.32;59.43;100621.44;7400516;19;1661;-81
2023/04/07 03:08:33;;;;;;;;;;;;;;;20.39;59.13;100643.19;7396834;19;1805;-80
2023/04/07 03:11:01;;;;;;;;;;;;;;;20.27;59.33;100640.69;7400656;19;1578;-80
2023/04/07 03:13:32;;;;;;;;;;;;;;;20.29;59.15;100631.63;7396594;19;1421;-81
2023/04/07 03:16:00;;;;;;;;;;;;;;;20.31;59.25;100640.38;7399744;19;1839;-79
2023/04/07 03:18:28;;;;;;;;;;;;;;;20.33;59.49;100643.78;7399480;19;1737;-80
2023/04/07 03:20:57;;;;;;;;;;;;;;;20.33;59.45;100641.09;7397877;19;1839;-65
2023/04/07 03:23:27;;;;;;;;;;;;;;;20.41;59.06;100646.56;7397456;19;1706;-65
2023/04/07 03:25:56;;;;;;;;;;;;;;;20.29;59.13;100650.44;7398276;19;1647;-80
2023/04/07 03:28:24;;;;;;;;;;;;;;;20.36;59.13;100643.50;7397471;19;1479;-80
2023/04/07 03:30:55;;;;;;;;;;;;;;;20.40;59.01;100651.09;7399111;19;1019;-82
2023/04/07 03:33:23;;;;;;;;;;;;;;;20.27;59.83;100651.44;7393488;19;1414;-76
2023/04/07 03:35:52;;;;;;;;;;;;;;;20.43;59.16;100656.19;7392898;19;1464;-77
2023/04/07 03:38:20;;;;;;;;;;;;;;;20.42;59.35;100667.06;7399169;19;1496;-76
2023/04/07 03:40:48;;;;;;;;;;;;;;;20.42;59.16;100659.84;7397029;19;1843;-81
2023/04/07 03:43:17;;;;;;;;;;;;;;;20.47;59.13;100654.03;7399831;19;1451;-80
2023/04/07 03:45:45;;;;;;;;;;;;;;;20.45;59.26;100653.34;7397644;19;1593;-80
2023/04/07 03:48:16;;;;;;;;;;;;;;;20.48;58.96;100666.47;7395782;19;1499;-80
2023/04/07 03:50:44;;;;;;;;;;;;;;;20.44;59.13;100673.97;7395052;19;1024;-80
2023/04/07 03:53:13;;;;;;;;;;;;;;;20.39;59.29;100661.97;7397778;19;1867;-81
2023/04/07 03:55:41;;;;;;;;;;;;;;;20.30;60.27;100668.25;7400178;19;1216;-83
2023/04/07 03:58:10;;;;;;;;;;;;;;;20.37;60.01;100669.34;7399265;19;1505;-83
2023/04/07 04:00:38;;;;;;;;;;;;;;;20.09;60.67;100669.28;7397237;19;1428;-77
2023/04/07 04:03:06;;;;;;;;;;;;;;;19.56;62.73;100691.22;7395419;19;1849;-78
2023/04/07 04:05:37;;;;;;;;;;;;;;;19.15;63.68;100679.75;7397911;19;1593;-78
2023/04/07 04:08:06;;;;;;;;;;;;;;;18.89;63.64;100690.97;7396492;19;1171;-74
2023/04/07 04:10:34;;;;;;;;;;;;;;;18.77;64.51;100697.38;7394057;19;1543;-69
2023/04/07 04:13:05;;;;;;;;;;;;;;;19.00;64.29;100695.34;7395463;19;1418;-78
2023/04/07 04:15:33;;;;;;;;;;;;;;;19.26;63.45;100682.31;7396883;19;1416;-69
2023/04/07 04:18:01;;;;;;;;;;;;;;;19.51;63.02;100699.66;7396314;19;1523;-74
2023/04/07 04:20:30;;;;;;;;;;;;;;;19.60;62.95;100700.69;7397976;19;1251;-78
2023/04/07 04:23:01;;;;;;;;;;;;;;;19.71;62.59;100722.00;7400847;19;1888;-71
2023/04/07 04:25:29;;;;;;;;;;;;;;;19.46;63.18;100715.34;7400058;19;1482;-72
2023/04/07 04:27:57;;;;;;;;;;;;;;;19.00;64.14;100701.59;7402593;19;1464;-80
2023/04/07 04:30:26;;;;;;;;;;;;;;;18.57;61.79;100691.94;7400183;19;1458;-79
2023/04/07 04:32:54;;;;;;;;;;;;;;;18.62;63.30;100710.28;7397400;19;1519;-77
2023/04/07 04:35:23;;;;;;;;;;;;;;;19.07;61.79;100707.22;7399135;19;1428;-77
2023/04/07 04:37:51;;;;;;;;;;;;;;;19.48;60.86;100716.06;7398428;19;1570;-75
2023/04/07 04:40:22;;;;;;;;;;;;;;;19.63;60.18;100714.63;7398601;19;1404;-75
2023/04/07 04:42:50;;;;;;;;;;;;;;;19.62;60.51;100725.53;7398850;19;1903;-75
2023/04/07 04:45:18;;;;;;;;;;;;;;;19.71;60.43;100735.44;7400971;19;1177;-76
2023/04/07 04:47:47;;;;;;;;;;;;;;;19.66;60.19;100746.56;7400267;19;1719;-76
2023/04/07 04:50:15;;;;;;;;;;;;;;;19.70;59.88;100725.66;7402143;19;1193;-76
2023/04/07 04:52:43;;;;;;;;;;;;;;;19.56;60.40;100737.66;7402746;19;1653;-72
2023/04/07 04:55:12;;;;;;;;;;;;;;;19.21;61.67;100748.88;7392739;19;1368;-72
2023/04/07 04:57:43;;;;;;;;;;;;;;;19.01;61.79;100738.09;7399324;19;1507;-70
2023/04/07 05:00:12;;;;;;;;;;;;;;;18.96;62.03;100744.84;7397925;19;1333;-70
2023/04/07 05:02:40;;;;;;;;;;;;;;;19.20;61.42;100756.09;7399583;19;1859;-69
2023/04/07 05:05:09;;;;;;;;;;;;;;;19.53;60.56;100759.38;7401793;19;1518;-69
2023/04/07 05:07:39;;;;;;;;;;;;;;;19.70;59.94;100754.34;7398542;19;1417;-69
2023/04/07 05:10:08;;;;;;;;;;;;;;;19.74;59.74;100756.63;7391506;19;1410;-68
2023/04/07 05:12:36;;;;;;;;;;;;;;;19.78;59.78;100746.47;7396183;19;1427;-68
2023/04/07 05:15:08;;;;;;;;;;;;;;;19.81;59.43;100756.91;7400447;19;1428;-68
2023/04/07 05:17:36;;;;;;;;;;;;;;;19.83;59.30;100761.13;7400254;19;1532;-69
2023/04/07 05:20:05;;;;;;;;;;;;;;;19.60;59.74;100759.69;7398631;19;1353;-68
2023/04/07 05:22:33;;;;;;;;;;;;;;;19.24;60.63;100772.75;7398126;19;1881;-69
2023/04/07 05:25:02;;;;;;;;;;;;;;;19.03;61.26;100775.50;7398824;19;1495;-70
2023/04/07 05:27:30;;;;;;;;;;;;;;;19.00;61.31;100784.66;7399462;19;1433;-69
2023/04/07 05:29:59;;;;;;;;;;;;;;;19.26;60.73;100762.75;7394509;19;1161;-69
2023/04/07 05:32:31;;;;;;;;;;;;;;;19.65;59.65;100752.06;7398111;19;1604;-64
2023/04/07 05:34:59;;;;;;;;;;;;;;;19.38;59.65;100724.09;7398617;19;1464;-61
2023/04/07 05:37:27;;;;;;;;;;;;;;;19.29;60.37;100773.16;7398228;19;1539;-61
2023/04/07 05:39:56;;;;;;;;;;;;;;;18.98;61.36;100767.00;7397833;19;1494;-63
2023/04/07 05:42:24;;;;;;;;;;;;;;;18.85;61.65;100783.31;7397506;19;1834;-63
2023/04/07 05:44:52;;;;;;;;;;;;;;;19.14;61.13;100767.34;7397503;19;1368;-60
2023/04/07 05:47:20;;;;;;;;;;;;;;;19.77;59.69;100788.53;7397831;19;1527;-61
2023/04/07 05:49:51;;;;;;;;;;;;;;;20.02;59.11;100779.06;7398310;19;1107;-61
2023/04/07 05:52:20;;;;;;;;;;;;;;;19.57;60.24;100771.53;7397543;19;1444;-61
2023/04/07 05:54:48;;;;;;;;;;;;;;;19.20;62.26;100777.53;7398125;19;1871;-60
2023/04/07 05:57:16;;;;;;;;;;;;;;;18.95;62.58;100781.53;7398438;19;1459;-59
2023/04/07 05:59:45;;;;;;;;;;;;;;;19.05;62.55;100793.13;7396917;19;1408;-61
2023/04/07 06:02:13;;;;;;;;;;;;;;;19.56;61.16;100801.19;7395439;19;1852;-60
2023/04/07 06:04:42;;;;;;;;;;;;;;;19.79;60.88;100797.28;7392208;19;1459;-60
2023/04/07 06:07:12;;;;;;;;;;;;;;;19.31;61.75;100792.66;7390386;19;1427;-60
2023/04/07 06:09:41;;;;;;;;;;;;;;;18.97;63.42;100806.34;7388466;19;1141;-60
2023/04/07 06:12:11;;;;;;;;;;;;;;;18.99;63.28;100815.09;7389643;19;1477;-60
2023/04/07 06:14:39;;;;;;;;;;;;;;;19.43;62.28;100807.63;7397552;19;1483;-60
2023/04/07 06:17:07;;;;;;;;;;;;;;;19.92;61.17;100796.19;7395105;19;1370;-60
2023/04/07 06:19:35;;;;;;;;;;;;;;;19.64;62.69;100815.59;7395071;19;1317;-60
2023/04/07 06:22:04;;;;;;;;;;;;;;;19.19;63.92;100815.19;7396596;19;1841;-60
2023/04/07 06:24:35;;;;;;;;;;;;;;;18.88;64.72;100818.75;7395352;19;1534;-60
2023/04/07 06:27:03;;;;;;;;;;;;;;;19.18;63.93;100813.47;7328060;19;12693;-60
2023/04/07 06:29:32;;;;;;;;;;;;;;;19.68;62.30;100821.53;7396412;19;1778;-63
2023/04/07 06:32:00;;;;;;;;;;;;;;;19.82;61.72;100806.91;7397948;19;1558;-61
2023/04/07 06:34:28;;;;;;;;;;;;;;;19.48;62.37;100815.28;7397703;19;1223;-64
2023/04/07 06:36:57;;;;;;;;;;;;;;;19.16;63.44;100823.50;7395817;19;1505;-60
2023/04/07 06:39:25;;;;;;;;;;;;;;;19.01;63.94;100826.53;7394776;19;1196;-61
2023/04/07 06:41:56;;;;;;;;;;;;;;;19.32;63.54;100821.19;7389688;19;1855;-61
2023/04/07 06:44:24;;;;;;;;;;;;;;;19.90;62.47;100835.72;7395700;19;1440;-61
2023/04/07 06:46:54;;;;;;;;;;;;;;;20.01;62.21;100806.06;7396737;19;1504;-61
2023/04/07 06:49:22;;;;;;;;;;;;;;;19.55;63.41;100847.78;7396870;19;1189;-61
2023/04/07 06:51:50;;;;;;;;;;;;;;;19.27;64.36;100834.13;7396614;19;1536;-61
2023/04/07 06:54:19;;;;;;;;;;;;;;;18.95;65.17;100840.47;7397492;19;1448;-62
2023/04/07 06:56:47;;;;;;;;;;;;;;;18.82;65.49;100834.47;7396458;19;1047;-62
2023/04/07 06:59:18;;;;;;;;;;;;;;;18.72;65.97;100828.19;7396838;19;1519;-62
2023/04/07 07:01:48;;;;;;;;;;;;;;;18.64;66.54;100826.16;7394569;19;1444;-62
2023/04/07 07:04:16;;;;;;;;;;;;;;;18.56;66.70;100828.66;7396728;19;1485;-62
2023/04/07 07:06:44;;;;;;;;;;;;;;;18.56;66.69;100848.28;7396405;19;1055;-62
2023/04/07 07:09:12;;;;;;;;;;;;;;;18.48;66.88;100842.69;7396312;19;1588;-62
2023/04/07 07:11:41;;;;;;;;;;;;;;;18.48;67.02;100848.03;7396011;19;1523;-62
2023/04/07 07:14:09;;;;;;;;;;;;;;;18.46;67.01;100855.38;7394746;19;1679;-62
2023/04/07 07:16:40;;;;;;;;;;;;;;;18.42;67.01;100846.75;7397459;19;1209;-62
2023/04/07 07:19:08;;;;;;;;;;;;;;;18.42;67.15;100857.47;7396507;19;1478;-62
2023/04/07 07:21:37;;;;;;;;;;;;;;;18.45;67.44;100869.75;7396190;19;1240;-62
2023/04/07 07:24:05;;;;;;;;;;;;;;;18.39;67.16;100859.56;7394992;19;1853;-61
2023/04/07 07:26:33;;;;;;;;;;;;;;;18.39;67.14;100864.91;7396343;19;1468;-61
2023/04/07 07:29:01;;;;;;;;;;;;;;;18.35;66.75;100871.50;7395559;19;1291;-61
2023/04/07 07:31:30;;;;;;;;;;;;;;;18.36;65.85;100859.81;7396745;19;1046;-61
2023/04/07 07:34:01;;;;;;;;;;;;;;;18.32;65.79;100869.06;7394130;19;1900;-61
2023/04/07 07:36:30;;;;;;;;;;;;;;;18.30;65.68;100861.16;7395351;19;1833;-61
2023/04/07 07:38:58;;;;;;;;;;;;;;;18.34;65.57;100881.34;7387353;19;1259;-61
2023/04/07 07:41:27;;;;;;;;;;;;;;;18.30;65.44;100871.88;7396599;19;1587;-61
2023/04/07 07:43:56;;;;;;;;;;;;;;;18.32;65.31;100867.22;7393299;19;1845;-61
2023/04/07 07:46:26;;;;;;;;;;;;;;;18.29;65.48;100863.00;7387505;19;1317;-61
2023/04/07 07:48:54;;;;;;;;;;;;;;;18.30;65.31;100855.81;7382568;19;1468;-61
2023/04/07 07:51:26;;;;;;;;;;;;;;;18.32;65.33;100869.06;7394137;19;1558;-61
2023/04/07 07:53:55;;;;;;;;;;;;;;;18.28;65.34;100874.69;7395307;19;1445;-61
2023/04/07 07:56:23;;;;;;;;;;;;;;;18.29;65.25;100878.22;7394926;19;1491;-62
2023/04/07 07:58:51;;;;;;;;;;;;;;;18.32;65.61;100874.44;7395203;19;1194;-62
2023/04/07 08:01:20;;;;;;;;;;;;;;;18.27;65.55;100882.84;7394044;19;1986;-62
2023/04/07 08:03:48;;;;;;;;;;;;;;;18.27;65.62;100878.34;7393503;19;1859;-62
2023/04/07 08:06:16;;;;;;;;;;;;;;;18.26;65.62;100865.94;7394268;19;1377;-62
2023/04/07 08:08:47;;;;;;;;;;;;;;;18.26;65.67;100865.06;7386677;19;1200;-61
2023/04/07 08:11:16;;;;;;;;;;;;;;;18.29;65.89;100892.44;7394436;19;1134;-61
2023/04/07 08:13:45;;;;;;;;;;;;;;;18.31;65.77;100883.44;7392411;19;1998;-62
2023/04/07 08:16:13;;;;;;;;;;;;;;;18.26;65.89;100865.06;7394701;19;1468;-62
2023/04/07 08:18:42;;;;;;;;;;;;;;;18.27;65.88;100878.34;7394528;19;1279;-61
2023/04/07 08:21:10;;;;;;;;;;;;;;;18.26;65.95;100881.13;7394252;19;1461;-61
2023/04/07 08:23:38;;;;;;;;;;;;;;;18.26;65.88;100867.75;7393565;19;1849;-62
2023/04/07 08:26:09;;;;;;;;;;;;;;;18.24;65.96;100865.22;7393920;19;1121;-61
2023/04/07 08:28:38;;;;;;;;;;;;;;;18.27;65.73;100872.97;7393663;19;1200;-61
2023/04/07 08:31:06;;;;;;;;;;;;;;;18.27;65.90;100888.19;7394432;19;1477;-61
2023/04/07 08:33:35;;;;;;;;;;;;;;;18.24;65.98;100872.38;7394440;19;1149;-61
2023/04/07 08:36:03;;;;;;;;;;;;;;;18.24;65.94;100883.09;7392723;19;1785;-61
2023/04/07 08:38:31;;;;;;;;;;;;;;;18.21;66.04;100886.03;7393382;19;1573;-61
2023/04/07 08:41:02;;;;;;;;;;;;;;;18.24;66.39;100873.25;7394002;19;1603;-61
2023/04/07 08:43:35;;;;;;;;;;;;;;;18.25;66.10;100874.09;7393771;19;1849;-61
2023/04/07 08:46:04;;;;;;;;;;;;;;;18.29;65.91;100875.53;7395101;19;1233;-62
2023/04/07 08:48:34;;;;;;;;;;;;;;;18.25;66.03;100885.66;7393915;19;1796;-61
2023/04/07 08:51:07;;;;;;;;;;;;;;;18.26;66.20;100873.97;7394410;19;1568;-61
2023/04/07 08:53:39;;;;;;;;;;;;;;;18.27;66.21;100881.00;7392975;19;1240;-61
2023/04/07 08:56:08;;;;;;;;;;;;;;;18.27;65.97;100870.31;7393583;19;1251;-61
2023/04/07 08:58:39;;;;;;;;;;;;;;;18.26;66.09;100883.81;7392619;19;1524;-61
2023/04/07 09:01:08;;;;;;;;;;;;;;;18.26;66.06;100871.31;7390691;19;1424;-60
2023/04/07 09:03:37;;;;;;;;;;;;;;;18.28;65.97;100873.81;7385390;19;1867;-65
2023/04/07 09:06:06;;;;;;;;;;;;;;;18.24;66.00;100872.38;7392014;19;1432;-64
2023/04/07 09:08:34;;;;;;;;;;;;;;;18.21;66.37;100878.84;7400660;19;1415;-69
2023/04/07 09:11:02;;;;;;;;;;;;;;;18.26;66.60;100883.81;7399944;19;1138;-65
2023/04/07 09:13:30;;;;;;;;;;;;;;;18.16;66.35;100870.34;7398467;19;1493;-62
2023/04/07 09:16:03;;;;;;;;;;;;;;;18.12;66.33;100882.28;7400512;19;1516;-72
2023/04/07 09:18:31;;;;;;;;;;;;;;;18.16;66.49;100899.78;7395875;19;1503;-71
2023/04/07 09:21:00;;;;;;;;;;;;;;;18.19;66.35;100904.91;7400144;19;1594;-70
2023/04/07 09:23:30;;;;;;;;;;;;;;;18.16;66.30;100888.22;7398946;19;1856;-71
2023/04/07 09:25:59;;;;;;;;;;;;;;;18.21;66.08;100875.34;7400366;19;1554;-72
2023/04/07 09:28:39;;;;;;;;;;;;;;;18.20;66.09;100877.13;7397552;19;1446;-75
2023/04/07 09:31:10;;;;;;;;;;;;;;;18.22;66.18;100882.38;7398292;19;1064;-77
2023/04/07 09:33:39;;;;;;;;;;;;;;;18.17;66.04;100906.84;7401247;19;997;-69
2023/04/07 09:36:07;;;;;;;;;;;;;;;18.16;66.27;100867.66;7398229;19;1444;-70
2023/04/07 09:38:37;;;;;;;;;;;;;;;18.24;65.78;100867.03;7398667;19;1142;-69
2023/04/07 09:41:09;;;;;;;;;;;;;;;18.24;65.56;100873.25;7395220;19;1322;-70
2023/04/07 09:43:38;;;;;;;;;;;;;;;18.06;65.35;100897.03;7396435;19;1854;-70
2023/04/07 09:46:16;;;;;;;;;;;;;;;18.01;64.83;100904.59;7399028;19;1404;-66
2023/04/07 09:48:47;;;;;;;;;;;;;;;18.01;64.95;100904.59;7397856;19;1201;-64
2023/04/07 09:51:16;;;;;;;;;;;;;;;17.93;65.07;100887.47;7398415;19;1120;-61
2023/04/07 09:53:46;;;;;;;;;;;;;;;17.98;65.16;100894.13;7398843;19;1356;-60
2023/04/07 09:56:15;;;;;;;;;;;;;;;18.01;63.80;100901.06;7397745;19;1260;-61
2023/04/07 09:58:45;;;;;;;;;;;;;;;18.04;65.30;100900.78;7396333;19;2043;-61
2023/04/07 10:01:17;;;;;;;;;;;;;;;18.08;64.77;100889.72;7396891;19;1469;-61
2023/04/07 10:03:46;;;;;;;;;;;;;;;18.22;64.68;100896.63;7399733;19;1851;-61
2023/04/07 10:06:15;;;;;;;;;;;;;;;18.17;64.86;100898.81;7399716;19;1537;-61
2023/04/07 10:08:44;;;;;;;;;;;;;;;18.14;65.07;100892.88;7395546;19;1530;-62
2023/04/07 10:11:12;;;;;;;;;;;;;;;18.08;65.01;100904.91;7396137;19;1596;-62
2023/04/07 10:13:41;;;;;;;;;;;;;;;18.19;64.79;100909.41;7395331;19;1399;-62
2023/04/07 10:16:10;;;;;;;;;;;;;;;18.06;65.07;100890.81;7396673;19;1461;-62
2023/04/07 10:18:42;;;;;;;;;;;;;;;18.03;65.28;100913.34;7396288;19;1608;-62
2023/04/07 10:21:14;;;;;;;;;;;;;;;17.98;65.62;100909.31;7395687;19;1528;-62
2023/04/07 10:23:48;;;;;;;;;;;;;;;17.97;65.47;100910.31;7398139;19;1859;-62
2023/04/07 10:26:18;;;;;;;;;;;;;;;18.00;65.43;100896.69;7399550;19;1441;-62
2023/04/07 10:28:48;;;;;;;;;;;;;;;17.99;65.22;100905.69;7398982;19;1467;-62
2023/04/07 10:31:16;;;;;;;;;;;;;;;18.03;65.19;100901.78;7398579;19;1174;-62
2023/04/07 10:33:52;;;;;;;;;;;;;;;17.95;65.34;100910.44;7399356;19;1217;-62
2023/04/07 10:36:21;;;;;;;;;;;;;;;17.98;65.39;100901.31;7399991;19;1071;-62
2023/04/07 10:39:13;;;;;;;;;;;;;;;18.01;65.23;100904.59;7398905;19;1518;-62
2023/04/07 10:41:42;;;;;;;;;;;;;;;18.02;65.24;100905.44;7398514;19;1286;-62
2023/04/07 10:44:11;;;;;;;;;;;;;;;18.00;65.30;100897.50;7397067;19;1877;-63
2023/04/07 10:47:03;;;;;;;;;;;;;;;18.01;65.20;100909.09;7398711;19;1193;-62
2023/04/07 10:49:35;;;;;;;;;;;;;;;18.01;65.45;100925.16;7398305;19;1865;-62
2023/04/07 10:52:24;;;;;;;;;;;;;;;18.02;65.29;100929.50;7398202;19;1590;-62
2023/04/07 10:55:07;;;;;;;;;;;;;;;17.96;65.33;100912.13;7397010;19;1253;-63
2023/04/07 10:57:36;;;;;;;;;;;;;;;17.93;65.57;100903.53;7397944;19;1428;-63
2023/04/07 11:00:18;;;;;;;;;;;;;;;17.92;65.35;100909.84;7398075;19;1146;-62
2023/04/07 11:02:46;;;;;;;;;;;;;;;17.79;65.83;100910.81;7398136;19;1590;-62
2023/04/07 11:05:26;;;;;;;;;;;;;;;17.82;65.79;100910.53;7396054;19;1903;-62
2023/04/07 11:08:01;;;;;;;;;;;;;;;17.93;65.59;100906.19;7397670;19;1429;-62
2023/04/07 11:10:30;;;;;;;;;;;;;;;17.88;65.58;100912.75;7398357;19;1615;-62
2023/04/07 11:13:05;;;;;;;;;;;;;;;17.99;65.29;100897.66;7397394;19;1401;-62
2023/04/07 11:15:34;;;;;;;;;;;;;;;17.91;65.52;100902.78;7397833;19;1221;-62
2023/04/07 11:18:13;;;;;;;;;;;;;;;17.91;65.64;100897.44;7397987;19;1279;-62
2023/04/07 11:20:47;;;;;;;;;;;;;;;17.92;65.30;100894.63;7397785;19;1269;-62
2023/04/07 11:23:17;;;;;;;;;;;;;;;17.96;65.37;100889.88;7397827;19;1842;-62
2023/04/07 11:25:46;;;;;;;;;;;;;;;17.98;65.07;100903.97;7395552;19;1457;-62
2023/04/07 11:28:15;;;;;;;;;;;;;;;18.01;65.08;100891.19;7398116;19;1244;-62
2023/04/07 11:30:48;;;;;;;;;;;;;;;18.02;65.15;100892.88;7396472;19;1493;-62
2023/04/07 11:33:17;;;;;;;;;;;;;;;17.86;65.25;100895.97;7397776;19;1630;-63
2023/04/07 11:35:58;;;;;;;;;;;;;;;17.96;65.02;100882.69;7397037;19;1382;-62
2023/04/07 11:38:27;;;;;;;;;;;;;;;18.04;65.17;100892.78;7397554;19;1475;-62
2023/04/07 11:40:56;;;;;;;;;;;;;;;17.94;65.46;100899.84;7398258;19;1604;-63
2023/04/07 11:43:25;;;;;;;;;;;;;;;17.97;65.15;100886.25;7396620;19;1842;-63
2023/04/07 11:46:06;;;;;;;;;;;;;;;17.88;65.49;100902.03;7397181;19;1580;-63
2023/04/07 11:48:35;;;;;;;;;;;;;;;17.91;65.18;100903.63;7397701;19;1523;-63
2023/04/07 11:51:06;;;;;;;;;;;;;;;17.86;65.53;100887.94;7397751;19;1611;-63
2023/04/07 11:53:36;;;;;;;;;;;;;;;17.81;65.61;100892.81;7397002;19;1157;-63
2023/04/07 11:56:09;;;;;;;;;;;;;;;17.74;65.90;100888.91;7396850;19;1441;-62
2023/04/07 11:58:38;;;;;;;;;;;;;;;17.83;65.75;100900.72;7395367;19;1173;-63
2023/04/07 12:01:07;;;;;;;;;;;;;;;17.80;65.61;100883.06;7396819;19;1138;-62
2023/04/07 12:03:37;;;;;;;;;;;;;;;17.78;65.62;100885.00;7397674;19;1864;-62
2023/04/07 12:06:08;;;;;;;;;;;;;;;17.84;65.31;100889.91;7396778;19;1595;-62
2023/04/07 12:08:40;;;;;;;;;;;;;;;18.04;65.20;100898.13;7396587;19;1555;-62
2023/04/07 12:11:09;;;;;;;;;;;;;;;18.05;65.08;100899.84;7396665;19;1587;-62
2023/04/07 12:13:37;;;;;;;;;;;;;;;18.07;64.96;100897.88;7395297;19;1537;-62
2023/04/07 12:16:06;;;;;;;;;;;;;;;18.03;65.03;100901.78;7396919;19;1544;-62
2023/04/07 12:18:35;;;;;;;;;;;;;;;18.03;64.64;100894.59;7397393;19;1637;-61
2023/04/07 12:21:03;;;;;;;;;;;;;;;18.06;64.66;100896.16;7396422;19;1657;-61
2023/04/07 12:23:34;;;;;;;;;;;;;;;18.04;64.96;100893.59;7394261;19;1550;-61
2023/04/07 12:26:02;;;;;;;;;;;;;;;18.06;64.70;100898.84;7395744;19;1559;-61
2023/04/07 12:28:31;;;;;;;;;;;;;;;17.98;65.03;100906.66;7397245;19;1472;-61
2023/04/07 12:30:59;;;;;;;;;;;;;;;17.97;64.83;100907.66;7396696;19;1194;-62
2023/04/07 12:33:27;;;;;;;;;;;;;;;17.98;64.71;100899.47;7396521;19;1483;-63
2023/04/07 12:35:56;;;;;;;;;;;;;;;18.00;64.83;100902.03;7396462;19;1488;-63
2023/04/07 12:38:24;;;;;;;;;;;;;;;17.91;64.97;100908.16;7396347;19;1499;-63
2023/04/07 12:40:55;;;;;;;;;;;;;;;17.92;65.30;100915.19;7395937;19;1548;-63
2023/04/07 12:43:23;;;;;;;;;;;;;;;17.88;65.16;100910.06;7403500;19;1630;-62
2023/04/07 12:45:51;;;;;;;;;;;;;;;17.83;65.45;100914.97;7400640;19;1842;-63
2023/04/07 12:48:20;;;;;;;;;;;;;;;17.85;65.44;100921.03;7402979;19;1472;-63
2023/04/07 12:50:48;;;;;;;;;;;;;;;17.92;64.96;100905.31;7403938;19;1221;-62
2023/04/07 12:53:16;;;;;;;;;;;;;;;17.97;65.03;100915.66;7403647;19;1808;-62
2023/04/07 12:55:45;;;;;;;;;;;;;;;17.96;64.55;100896.06;7402988;19;1437;-63
2023/04/07 12:58:16;;;;;;;;;;;;;;;17.85;64.84;100899.63;7400057;19;1593;-62
2023/04/07 13:00:45;;;;;;;;;;;;;;;17.86;65.20;100912.03;7403161;19;1476;-62